Flight Track Log - Related Links

Times and Time Zones

All times are in EST time to prevent confusion due to time zone crossing. See the RPA3390 flight status page for this flight to view local times or setup timezone preferences in your user account.

Time Position Orientation Groundspeed Altitude Reporting Facility
EST Latitude Longitude Course Direction KTS MPH feet Rate Location/Type
Wed 12:52:20 PM 36.1333 -86.6500 64° Northeast 168 193 1,200  Level Nashville TRACON
Wed 12:53:02 PM 36.1667 -86.6167 39° Northeast 186 214 2,300 2,162 Climbing Nashville TRACON
Wed 12:54:11 PM 36.1383 -86.5436 116° Southeast 225 259 5,200 2,794 Climbing Memphis Center
Wed 12:55:00 PM 36.1644 -86.2780 76° East  Level FlightAware Approximate
Wed 12:55:13 PM 36.1222 -86.4508 102° East 266 306 8,400  Level Memphis Center
Wed 12:56:00 PM 36.1881 -86.1497 80° East  Level FlightAware Approximate
Wed 12:56:15 PM 36.1439 -86.3531 75° East 289 333 10,800  Level Memphis Center
Wed 12:57:00 PM 36.2170 -86.0242 64° Northeast  Level FlightAware Approximate
Wed 12:57:17 PM 36.1675 -86.2339 76° East 345 397 12,900  Level Memphis Center
Wed 12:58:00 PM 36.2654 -85.9031 64° Northeast  Level FlightAware Approximate
Wed 12:58:19 PM 36.1925 -86.1114 76° East 361 415 15,400  Level Memphis Center
Wed 12:59:21 PM 36.2456 -85.9697 65° Northeast 383 441 17,900 1,934 Climbing Memphis Center
Wed 01:00:20 PM 36.2900 -85.8689 61° Northeast 393 452 19,300 1,835 Climbing Indianapolis Center
Wed 01:01:22 PM 36.3558 -85.7250 60° Northeast 407 468 21,600 2,000 Climbing Indianapolis Center
Wed 01:02:23 PM 36.4164 -85.5986 59° Northeast 417 480 23,400 1,659 Climbing Indianapolis Center
Wed 01:03:25 PM 36.4775 -85.4681 60° Northeast 429 494 25,000 1,355 Climbing Indianapolis Center
Wed 01:04:27 PM 36.5419 -85.3336 59° Northeast 442 509 26,200 1,161 Climbing Indianapolis Center
Wed 01:05:29 PM 36.6056 -85.1944 60° Northeast 454 522 27,400 1,161 Climbing Indianapolis Center
Wed 01:06:31 PM 36.6550 -85.0458 67° East 459 528 28,600 1,366 Climbing Indianapolis Center
Wed 01:07:32 PM 36.7028 -84.8911 69° East 472 543 30,200 1,610 Climbing Indianapolis Center
Wed 01:08:34 PM 36.7567 -84.7114 69° East 464 534 31,900 1,355 Climbing Indianapolis Center
Wed 01:09:36 PM 36.8019 -84.5619 69° East 463 533 33,000 532 Climbing Indianapolis Center
Wed 01:10:38 PM 36.8461 -84.4186 69° East 461 531 33,000  Level Indianapolis Center
Wed 01:11:40 PM 36.8919 -84.2650 70° East 467 537 33,000  Level Indianapolis Center
Wed 01:12:42 PM 36.9372 -84.1117 70° East 469 540 33,000  Level Indianapolis Center
Wed 01:13:43 PM 36.9908 -83.9331 69° East 469 540 33,000  Level Indianapolis Center
Wed 01:14:45 PM 37.0361 -83.7767 70° East 472 543 33,000  Level Indianapolis Center
Wed 01:15:47 PM 37.0817 -83.6214 70° East 472 543 33,000  Level Indianapolis Center
Wed 01:16:49 PM 37.1275 -83.4650 70° East 473 544 33,000  Level Indianapolis Center
Wed 01:17:51 PM 37.1731 -83.3081 70° East 473 544 33,000  Level Indianapolis Center
Wed 01:18:53 PM 37.2194 -83.1483 70° East 479 551 33,000  Level Indianapolis Center
Wed 01:19:55 PM 37.2656 -82.9889 70° East 482 555 33,000  Level Indianapolis Center
Wed 01:20:56 PM 37.3108 -82.8300 70° East 481 554 33,000  Level Indianapolis Center
Wed 01:21:58 PM 37.3639 -82.6442 70° East 481 554 33,000  Level Indianapolis Center
Wed 01:23:00 PM 37.4089 -82.4842 70° East 481 554 33,000  Level Indianapolis Center
Wed 01:24:02 PM 37.4528 -82.3247 71° East 481 554 33,000  Level Indianapolis Center
Wed 01:25:04 PM 37.4975 -82.1647 71° East 481 554 33,000  Level Indianapolis Center
Wed 01:26:06 PM 37.5422 -82.0028 71° East 483 556 33,000  Level Indianapolis Center
Wed 01:27:07 PM 37.5861 -81.8431 71° East 483 556 33,000  Level Indianapolis Center
Wed 01:28:09 PM 37.6294 -81.6814 71° East 483 556 33,000  Level Indianapolis Center
Wed 01:29:11 PM 37.6725 -81.5197 71° East 484 557 33,000  Level Indianapolis Center
Wed 01:30:13 PM 37.7214 -81.3453 70° East 484 557 33,000  Level Indianapolis Center
Wed 01:31:15 PM 37.7633 -81.1878 71° East 484 557 33,000  Level Indianapolis Center
Wed 01:32:16 PM 37.7883 -80.9892 81° East 493 567 33,000  Level Indianapolis Center
Wed 01:33:18 PM 37.8006 -80.8219 85° East 495 570 33,000  Level Indianapolis Center
Wed 01:34:20 PM 37.8103 -80.6506 86° East 493 567 33,000  Level Indianapolis Center
Wed 01:34:59 PM 37.8192 -80.5289 85° East 486 559 33,000  Level Washington Center
Wed 01:36:00 PM 37.8306 -80.3561 85° East 486 559 33,000  Level Washington Center
Wed 01:37:01 PM 37.8414 -80.1833 85° East 486 559 33,000  Level Washington Center
Wed 01:38:01 PM 37.8519 -80.0103 86° East 492 566 33,000  Level Washington Center
Wed 01:39:02 PM 37.8625 -79.8372 86° East 497 572 33,000  Level Washington Center
Wed 01:39:59 PM 37.8722 -79.6800 85° East 497 572 33,000  Level Washington Center
Wed 01:40:59 PM 37.8842 -79.5042 85° East 497 572 33,000  Level Washington Center
Wed 01:42:01 PM 37.8919 -79.3258 87° East 497 572 33,000  Level Washington Center
Wed 01:42:59 PM 37.9017 -79.1472 86° East 497 572 33,000  Level Washington Center
Wed 01:43:59 PM 37.9214 -78.9692 82° East 497 572 33,000  Level Washington Center
Wed 01:45:00 PM 37.9458 -78.7650 81° East 521 600 33,000  Level Washington Center
Wed 01:46:01 PM 37.9672 -78.5786 82° East 526 605 33,000 -504 Level Washington Center
Wed 01:46:59 PM 37.9883 -78.3978 82° East 526 605 32,000 -1,000 Descending Washington Center
Wed 01:48:01 PM 38.0111 -78.2114 81° East 526 605 31,000 -492 Descending Washington Center
Wed 01:49:01 PM 38.0603 -78.0575 68° East 521 600 31,000 -50 Level Washington Center
Wed 01:50:00 PM 38.1408 -77.8967 57° Northeast 521 600 30,900 -600 Descending Washington Center
Wed 01:51:01 PM 38.2231 -77.7353 57° Northeast 531 611 29,800 -942 Descending Washington Center
Wed 01:52:01 PM 38.2942 -77.5917 58° Northeast 509 586 29,000 -400 Descending Washington Center
Wed 01:53:01 PM 38.3656 -77.4428 59° Northeast 494 568 29,000  Level Washington Center
Wed 01:53:59 PM 38.4364 -77.2986 58° Northeast 484 557 29,000  Level Washington Center
Wed 01:55:00 PM 38.5072 -77.1544 58° Northeast 484 557 29,000 -198 Level Washington Center
Wed 01:56:00 PM 38.5797 -77.0044 58° Northeast 484 557 28,600 -1,388 Descending Washington Center
Wed 01:57:01 PM 38.6503 -76.8622 58° Northeast 484 557 26,200 -2,281 Descending Washington Center
Wed 01:58:01 PM 38.7100 -76.7222 61° Northeast 470 541 24,000 -2,136 Descending Washington Center
Wed 01:58:59 PM 38.7406 -76.5736 75° East 445 512 22,000 -2,017 Descending Washington Center
Wed 02:00:00 PM 38.7708 -76.4278 75° East 425 489 20,000 -1,983 Descending Washington Center
Wed 02:01:00 PM 38.7986 -76.2894 76° East 413 475 18,000 -1,900 Descending Washington Center
Wed 02:02:00 PM 38.8286 -76.1539 74° East 397 457 16,200 -1,475 Descending Washington Center
Wed 02:03:02 PM 38.8542 -76.0261 76° East 386 444 15,000 -600 Descending Washington Center
Wed 02:04:00 PM 38.8794 -75.9008 75° East 373 429 15,000  Level Washington Center
Wed 02:05:01 PM 38.9339 -75.7944 57° Northeast 347 399 15,000 -101 Level Washington Center
Wed 02:05:59 PM 39.0153 -75.7225 34° Northeast 336 387 14,800 -1,200 Descending Washington Center
Wed 02:07:41 PM 39.1833 -75.6667 14° North 313 360 11,800 -1,654 Descending Philadelphia TRACON
Wed 02:08:35 PM 39.2500 -75.6667 360° North 301 346 10,500 -1,050 Descending Philadelphia TRACON
Wed 02:09:41 PM 39.3333 -75.6167 25° Northeast 297 342 9,700 -1,190 Descending Philadelphia TRACON
Wed 02:10:41 PM 39.4000 -75.5500 38° Northeast 296 341 8,000 -1,350 Descending Philadelphia TRACON
Wed 02:11:41 PM 39.4167 -75.4500 78° East 298 343 7,000 -500 Descending Philadelphia TRACON
Wed 02:12:41 PM 39.4500 -75.3500 67° East 294 338 7,000  Level Philadelphia TRACON
Wed 02:13:35 PM 39.4833 -75.2833 57° Northeast 244 281 7,000  Level Philadelphia TRACON
Wed 02:14:41 PM 39.5500 -75.2167 38° Northeast 249 287 7,000  Level Philadelphia TRACON
Wed 02:15:35 PM 39.5833 -75.1500 57° Northeast 250 288 7,000  Level Philadelphia TRACON
Wed 02:16:47 PM 39.6500 -75.0833 38° Northeast 247 284 7,000  Level Philadelphia TRACON
Wed 02:17:41 PM 39.7000 -75.0833 360° North 220 253 7,000 -440 Level Philadelphia TRACON
Wed 02:18:36 PM 39.7500 -75.0833 360° North 224 258 6,200 -476 Descending Philadelphia TRACON
Wed 02:19:47 PM 39.8167 -75.0167 38° Northeast 258 297 6,000 -528 Descending Philadelphia TRACON
Wed 02:20:41 PM 39.8167 -74.9333 90° East 247 284 5,100 -991 Descending Philadelphia TRACON
Wed 02:21:42 PM 39.8667 -74.9000 27° Northeast 199 229 4,100 -524 Descending Philadelphia TRACON
Wed 02:22:47 PM 39.9167 -74.9500 323° Northwest 166 191 4,000 -303 Descending Philadelphia TRACON
Wed 02:23:41 PM 39.9167 -75.0000 270° West 172 198 3,500 -730 Descending Philadelphia TRACON
Wed 02:24:42 PM 39.9000 -75.0667 252° West 177 204 2,600 -893 Descending Philadelphia TRACON
Wed 02:25:42 PM 39.9000 -75.1333 270° West 164 189 1,700 -900 Descending Philadelphia TRACON
Wed 02:26:42 PM 39.8833 -75.1667 237° Southwest 126 145 800 -900 Descending Philadelphia TRACON

Login

Don't have an account? Register now (free) for customized features, flight alerts, and more!